createdAt,value
2022-12-11T00:00:55.402Z,2.85
2022-12-11T00:03:41.767Z,2.93
2022-12-11T00:06:12.784Z,2.93
2022-12-11T00:08:40.830Z,3.01
2022-12-11T00:11:16.774Z,3.00
2022-12-11T00:13:44.888Z,3.03
2022-12-11T00:16:12.635Z,3.07
2022-12-11T00:18:40.769Z,3.01
2022-12-11T00:21:13.119Z,3.02
2022-12-11T00:23:41.812Z,3.05
2022-12-11T00:26:14.701Z,3.01
2022-12-11T00:28:44.603Z,3.03
2022-12-11T00:31:18.700Z,3.05
2022-12-11T00:33:49.199Z,3.10
2022-12-11T00:36:24.336Z,3.04
2022-12-11T00:38:53.231Z,3.03
2022-12-11T00:41:21.654Z,3.01
2022-12-11T00:43:49.276Z,3.04
2022-12-11T00:46:16.614Z,3.09
2022-12-11T00:48:44.210Z,3.04
2022-12-11T00:51:11.530Z,2.97
2022-12-11T00:53:39.754Z,3.01
2022-12-11T00:56:16.799Z,3.04
2022-12-11T00:58:46.093Z,3.10
2022-12-11T01:01:22.319Z,3.13
2022-12-11T01:03:51.643Z,3.18
2022-12-11T01:06:23.882Z,3.14
2022-12-11T01:09:10.846Z,3.16
2022-12-11T01:11:38.637Z,3.12
2022-12-11T01:14:06.806Z,3.11
2022-12-11T01:16:34.337Z,3.09
2022-12-11T01:19:01.916Z,3.08
2022-12-11T01:21:29.790Z,3.06
2022-12-11T01:23:57.316Z,2.98
2022-12-11T01:26:24.628Z,3.06
2022-12-11T01:28:52.811Z,3.09
2022-12-11T01:31:22.349Z,3.06
2022-12-11T01:33:49.987Z,3.05
2022-12-11T01:36:21.268Z,3.11
2022-12-11T01:38:49.949Z,3.12
2022-12-11T01:41:21.405Z,3.08
2022-12-11T01:44:15.758Z,3.08
2022-12-11T01:46:43.907Z,3.08
2022-12-11T01:49:17.533Z,3.07
2022-12-11T01:52:25.447Z,3.03
2022-12-11T01:54:53.072Z,2.99
2022-12-11T01:57:20.436Z,2.91
2022-12-11T01:59:48.229Z,2.88
2022-12-11T02:02:30.227Z,2.83
2022-12-11T02:04:58.049Z,2.87
2022-12-11T02:07:25.373Z,2.88
2022-12-11T02:09:53.102Z,2.90
2022-12-11T02:12:37.603Z,2.89
2022-12-11T02:15:32.625Z,2.99
2022-12-11T02:18:27.832Z,2.84
2022-12-11T02:21:18.616Z,2.85
2022-12-11T02:24:19.801Z,2.93
2022-12-11T02:27:14.889Z,2.84
2022-12-11T02:30:04.407Z,2.83
2022-12-11T02:32:52.158Z,2.80
2022-12-11T02:35:24.469Z,2.85
2022-12-11T02:38:01.961Z,2.79
2022-12-11T02:40:35.415Z,2.76
2022-12-11T02:43:09.059Z,2.73
2022-12-11T02:45:38.412Z,2.67
2022-12-11T02:48:10.033Z,2.81
2022-12-11T02:50:45.181Z,2.70
2022-12-11T02:53:18.760Z,2.71
2022-12-11T02:55:50.046Z,2.75
2022-12-11T02:58:31.422Z,2.81
2022-12-11T03:00:58.877Z,2.82
2022-12-11T03:03:29.498Z,2.84
2022-12-11T03:05:57.255Z,2.78
2022-12-11T03:08:24.935Z,2.75
2022-12-11T03:10:52.220Z,2.83
2022-12-11T03:13:22.811Z,2.82
2022-12-11T03:16:34.734Z,2.78
2022-12-11T03:19:16.563Z,2.80
2022-12-11T03:22:12.345Z,2.80
2022-12-11T03:25:02.843Z,2.71
2022-12-11T03:27:35.783Z,2.74
2022-12-11T03:30:11.706Z,2.82
2022-12-11T03:32:50.406Z,2.83
2022-12-11T03:35:25.709Z,2.90
2022-12-11T03:37:57.513Z,2.88
2022-12-11T03:40:27.947Z,2.80
2022-12-11T03:42:58.675Z,2.59
2022-12-11T03:45:29.862Z,2.61
2022-12-11T03:48:02.178Z,2.64
2022-12-11T03:50:34.806Z,2.62
2022-12-11T03:53:04.827Z,2.61
2022-12-11T03:55:36.326Z,2.58
2022-12-11T03:58:03.707Z,2.60
2022-12-11T04:00:31.698Z,2.68
2022-12-11T04:03:14.827Z,2.63
2022-12-11T04:05:49.658Z,2.53
2022-12-11T04:08:18.965Z,2.61
2022-12-11T04:10:47.362Z,2.59
2022-12-11T04:13:14.861Z,2.71
2022-12-11T04:15:42.430Z,2.76
2022-12-11T04:18:28.983Z,2.67
2022-12-11T04:21:15.770Z,2.58
2022-12-11T04:24:01.526Z,2.54
2022-12-11T04:26:29.123Z,2.45
2022-12-11T04:28:56.420Z,2.39
2022-12-11T04:31:24.207Z,2.44
2022-12-11T04:33:51.569Z,2.40
2022-12-11T04:36:19.145Z,2.41
2022-12-11T04:38:46.351Z,2.51
2022-12-11T04:41:16.297Z,2.56
2022-12-11T04:43:47.231Z,2.53
2022-12-11T04:46:19.660Z,2.53
2022-12-11T04:48:51.202Z,2.55
2022-12-11T04:51:21.489Z,2.49
2022-12-11T04:53:48.751Z,2.47
2022-12-11T04:56:17.279Z,2.41
2022-12-11T04:58:47.265Z,2.43
2022-12-11T05:01:22.660Z,2.38
2022-12-11T05:03:50.605Z,2.40
2022-12-11T05:06:18.204Z,2.36
2022-12-11T05:08:45.898Z,2.30
2022-12-11T05:11:15.931Z,2.30
2022-12-11T05:13:44.281Z,2.33
2022-12-11T05:16:16.096Z,2.34
2022-12-11T05:18:43.946Z,2.38
2022-12-11T05:21:15.061Z,2.38
2022-12-11T05:23:42.847Z,2.37
2022-12-11T05:26:19.265Z,2.38
2022-12-11T05:28:50.944Z,2.37
2022-12-11T05:31:22.391Z,2.36
2022-12-11T05:33:50.885Z,2.30
2022-12-11T05:36:23.948Z,2.33
2022-12-11T05:38:52.887Z,2.35
2022-12-11T05:41:23.939Z,2.43
2022-12-11T05:43:51.361Z,2.41
2022-12-11T05:46:24.825Z,2.50
2022-12-11T05:48:58.112Z,2.44
2022-12-11T05:51:27.021Z,2.47
2022-12-11T05:53:56.253Z,2.37
2022-12-11T05:56:31.743Z,2.28
2022-12-11T05:59:01.476Z,2.25
2022-12-11T06:01:35.260Z,2.16
2022-12-11T06:04:04.295Z,2.14
2022-12-11T06:06:31.970Z,2.17
2022-12-11T06:09:00.855Z,2.17
2022-12-11T06:11:32.031Z,2.14
2022-12-11T06:14:01.440Z,2.07
2022-12-11T06:16:29.037Z,2.16
2022-12-11T06:18:58.424Z,2.11
2022-12-11T06:21:33.854Z,2.16
2022-12-11T06:24:04.177Z,2.20
2022-12-11T06:26:32.289Z,2.31
2022-12-11T06:28:59.801Z,2.23
2022-12-11T06:31:27.719Z,2.26
2022-12-11T06:33:55.602Z,2.34
2022-12-11T06:36:25.226Z,2.25
2022-12-11T06:38:53.175Z,2.15
2022-12-11T06:41:20.666Z,2.20
2022-12-11T06:43:47.937Z,2.21
2022-12-11T06:46:19.773Z,2.25
2022-12-11T06:48:50.652Z,2.28
2022-12-11T06:51:22.717Z,2.27
2022-12-11T06:53:55.269Z,2.22
2022-12-11T06:56:24.316Z,2.19
2022-12-11T06:58:52.414Z,2.19
2022-12-11T07:01:24.530Z,1.97
2022-12-11T07:04:00.273Z,1.98
2022-12-11T07:06:29.064Z,1.91
2022-12-11T07:08:57.223Z,1.95
2022-12-11T07:11:24.800Z,2.06
2022-12-11T07:13:52.335Z,2.11
2022-12-11T07:16:20.183Z,2.16
2022-12-11T07:18:50.919Z,2.10
2022-12-11T07:21:20.832Z,2.08
2022-12-11T07:23:49.700Z,2.15
2022-12-11T07:26:20.582Z,2.12
2022-12-11T07:28:49.016Z,1.99
2022-12-11T07:31:23.805Z,1.86
2022-12-11T07:33:57.158Z,1.97
2022-12-11T07:36:25.689Z,1.86
2022-12-11T07:38:53.669Z,1.90
2022-12-11T07:41:22.439Z,1.91
2022-12-11T07:43:49.712Z,1.74
2022-12-11T07:46:21.931Z,1.82
2022-12-11T07:48:49.832Z,1.72
2022-12-11T07:51:26.627Z,1.79
2022-12-11T07:54:04.965Z,1.82
2022-12-11T07:56:33.425Z,1.67
2022-12-11T07:59:03.556Z,1.81
2022-12-11T08:01:35.741Z,1.84
2022-12-11T08:04:05.458Z,1.81
2022-12-11T08:06:36.333Z,1.93
2022-12-11T08:09:07.785Z,1.98
2022-12-11T08:11:36.217Z,1.97
2022-12-11T08:14:05.414Z,2.07
2022-12-11T08:16:33.492Z,2.15
2022-12-11T08:19:00.960Z,2.08
2022-12-11T08:21:29.483Z,1.95
2022-12-11T08:23:56.847Z,2.08
2022-12-11T08:26:31.555Z,2.08
2022-12-11T08:29:00.945Z,2.05
2022-12-11T08:31:29.889Z,2.09
2022-12-11T08:33:57.890Z,2.20
2022-12-11T08:36:26.188Z,2.35
2022-12-11T08:38:56.473Z,2.35
2022-12-11T08:41:28.569Z,2.46
2022-12-11T08:43:57.700Z,2.53
2022-12-11T08:46:29.541Z,2.59
2022-12-11T08:48:57.951Z,2.59
2022-12-11T08:51:28.414Z,2.53
2022-12-11T08:53:59.421Z,2.47
2022-12-11T08:56:28.646Z,2.28
2022-12-11T08:58:56.263Z,2.46
2022-12-11T09:01:26.805Z,2.54
2022-12-11T09:03:56.803Z,2.32
2022-12-11T09:06:28.234Z,2.40
2022-12-11T09:08:58.683Z,2.41
2022-12-11T09:11:30.784Z,2.31
2022-12-11T09:14:02.238Z,2.40
2022-12-11T09:16:37.920Z,2.48
2022-12-11T09:19:08.602Z,2.49
2022-12-11T09:21:36.299Z,2.48
2022-12-11T09:24:03.940Z,2.46
2022-12-11T09:26:31.762Z,2.64
2022-12-11T09:28:59.284Z,2.84
2022-12-11T09:31:33.701Z,2.93
2022-12-11T09:34:08.557Z,2.95
2022-12-11T09:36:38.930Z,2.88
2022-12-11T09:39:09.079Z,2.87
2022-12-11T09:42:22.620Z,2.90
2022-12-11T09:44:59.711Z,2.92
2022-12-11T09:47:45.726Z,2.94
2022-12-11T09:50:48.097Z,3.07
2022-12-11T09:53:34.088Z,3.22
2022-12-11T09:56:33.733Z,3.52
2022-12-11T09:59:17.086Z,3.41
2022-12-11T10:02:11.601Z,3.42
2022-12-11T10:05:18.904Z,3.37
2022-12-11T10:08:23.874Z,3.44
2022-12-11T10:10:57.225Z,3.41
2022-12-11T10:13:42.520Z,3.38
2022-12-11T10:16:37.615Z,3.65
2022-12-11T10:19:05.996Z,3.60
2022-12-11T10:21:41.906Z,3.56
2022-12-11T10:27:38.655Z,3.34
2022-12-11T10:30:15.955Z,3.28
2022-12-11T10:33:06.917Z,3.19
2022-12-11T10:35:49.845Z,3.14
2022-12-11T10:38:23.004Z,3.19
2022-12-11T10:41:00.717Z,2.96
2022-12-11T10:43:39.936Z,2.91
2022-12-11T10:46:21.190Z,2.95
2022-12-11T10:48:57.769Z,2.82
2022-12-11T10:51:36.541Z,2.81
2022-12-11T10:54:27.737Z,2.68
2022-12-11T10:56:56.445Z,2.69
2022-12-11T10:59:48.122Z,2.63
2022-12-11T11:02:40.443Z,2.52
2022-12-11T11:05:17.165Z,2.70
2022-12-11T11:07:44.558Z,2.79
2022-12-11T11:10:12.127Z,2.93
2022-12-11T11:12:50.612Z,2.90
2022-12-11T11:15:29.082Z,2.88
2022-12-11T11:18:25.187Z,2.95
2022-12-11T11:20:53.683Z,2.88
2022-12-11T11:23:23.025Z,2.78
2022-12-11T11:26:11.819Z,2.64
2022-12-11T11:28:51.223Z,2.40
2022-12-11T11:31:23.130Z,2.48
2022-12-11T11:33:58.897Z,2.35
2022-12-11T11:36:33.996Z,2.40
2022-12-11T11:39:25.997Z,2.47
2022-12-11T11:42:15.218Z,2.41
2022-12-11T11:45:16.982Z,2.15
2022-12-11T11:48:28.685Z,2.02
2022-12-11T11:50:58.420Z,1.93
2022-12-11T11:53:40.702Z,1.91
2022-12-11T11:56:26.897Z,1.84
2022-12-11T11:59:03.264Z,2.02
2022-12-11T12:01:31.447Z,1.99
2022-12-11T12:04:01.522Z,1.91
2022-12-11T12:07:23.528Z,1.83
2022-12-11T12:10:15.622Z,1.83
2022-12-11T12:13:30.051Z,1.88
2022-12-11T12:16:02.061Z,1.95
2022-12-11T12:18:59.757Z,1.86
2022-12-11T12:21:39.075Z,1.59
2022-12-11T12:24:41.344Z,1.63
2022-12-11T12:27:55.785Z,1.66
2022-12-11T12:30:23.996Z,1.61
2022-12-11T12:33:38.465Z,1.55
2022-12-11T12:36:20.946Z,1.57
2022-12-11T12:38:54.022Z,1.65
2022-12-11T12:42:05.651Z,1.64
2022-12-11T12:45:01.675Z,1.64
2022-12-11T12:47:34.126Z,1.60
2022-12-11T12:50:10.388Z,1.58
2022-12-11T12:52:40.928Z,1.67
2022-12-11T12:55:26.068Z,1.64
2022-12-11T12:58:01.464Z,1.73
2022-12-11T13:00:49.265Z,1.63
2022-12-11T13:03:30.437Z,1.58
2022-12-11T13:06:03.523Z,1.54
2022-12-11T13:08:50.434Z,1.46
2022-12-11T13:11:21.454Z,1.56
2022-12-11T13:14:27.276Z,1.36
2022-12-11T13:17:21.398Z,1.39
2022-12-11T13:19:53.107Z,1.46
2022-12-11T13:22:24.905Z,1.41
2022-12-11T13:24:52.091Z,1.41
2022-12-11T13:27:40.254Z,1.34
2022-12-11T13:30:22.532Z,1.33
2022-12-11T13:33:07.788Z,1.29
2022-12-11T13:35:35.904Z,1.24
2022-12-11T13:38:20.857Z,1.20
2022-12-11T13:40:55.821Z,1.09
2022-12-11T13:43:28.690Z,1.08
2022-12-11T13:46:02.959Z,1.09
2022-12-11T13:49:22.188Z,0.98
2022-12-11T13:52:01.290Z,1.10
2022-12-11T13:54:31.889Z,1.04
2022-12-11T13:57:18.045Z,0.99
2022-12-11T13:59:53.421Z,1.14
2022-12-11T14:02:39.922Z,0.99
2022-12-11T14:05:11.590Z,0.98
2022-12-11T14:07:46.710Z,0.87
2022-12-11T14:10:20.917Z,0.84
2022-12-11T14:13:05.879Z,0.75
2022-12-11T14:15:36.360Z,0.76
2022-12-11T14:18:05.652Z,0.70
2022-12-11T14:20:34.591Z,0.59
2022-12-11T14:23:18.302Z,0.56
2022-12-11T14:26:17.390Z,0.55
2022-12-11T14:28:45.266Z,0.50
2022-12-11T14:31:41.097Z,0.46
2022-12-11T14:34:45.475Z,0.54
2022-12-11T14:37:17.623Z,0.54
2022-12-11T14:40:17.585Z,0.40
2022-12-11T14:43:00.344Z,0.32
2022-12-11T14:45:45.216Z,0.23
2022-12-11T14:48:34.674Z,0.20
2022-12-11T14:51:10.876Z,0.04
2022-12-11T14:53:46.250Z,-0.04
2022-12-11T14:56:27.840Z,-0.09
2022-12-11T14:59:31.450Z,-0.20
2022-12-11T15:02:04.701Z,-0.22
2022-12-11T15:04:33.573Z,-0.07
2022-12-11T15:07:01.088Z,-0.25
2022-12-11T15:09:38.602Z,-0.15
2022-12-11T15:12:16.832Z,-0.10
2022-12-11T15:14:52.227Z,-0.14
2022-12-11T15:17:21.327Z,-0.06
2022-12-11T15:20:23.723Z,-0.07
2022-12-11T15:22:51.716Z,-0.10
2022-12-11T15:25:30.635Z,-0.04
2022-12-11T15:28:01.225Z,-0.11
2022-12-11T15:30:35.182Z,-0.23
2022-12-11T15:33:11.240Z,-0.25
2022-12-11T15:35:52.365Z,-0.13
2022-12-11T15:38:34.436Z,-0.21
2022-12-11T15:41:04.373Z,-0.16
2022-12-11T15:43:36.448Z,-0.21
2022-12-11T15:46:06.104Z,-0.22
2022-12-11T15:48:34.248Z,-0.08
2022-12-11T15:51:01.787Z,0.01
2022-12-11T15:53:29.186Z,0.05
2022-12-11T15:55:59.628Z,0.09
2022-12-11T15:58:27.504Z,0.10
2022-12-11T16:00:55.695Z,0.07
2022-12-11T16:03:24.373Z,0.06
2022-12-11T16:05:53.695Z,0.19
2022-12-11T16:08:24.570Z,0.09
2022-12-11T16:10:54.901Z,0.04
2022-12-11T16:13:23.352Z,-0.03
2022-12-11T16:15:52.256Z,-0.09
2022-12-11T16:18:23.677Z,-0.18
2022-12-11T16:20:52.521Z,-0.15
2022-12-11T16:23:20.818Z,-0.18
2022-12-11T16:25:49.441Z,-0.24
2022-12-11T16:28:20.947Z,-0.25
2022-12-11T16:30:49.722Z,-0.26
2022-12-11T16:33:17.452Z,-0.22
2022-12-11T16:35:45.670Z,-0.14
2022-12-11T16:38:13.637Z,-0.21
2022-12-11T16:40:41.656Z,-0.16
2022-12-11T16:43:08.843Z,-0.21
2022-12-11T16:45:37.470Z,-0.29
2022-12-11T16:48:05.768Z,-0.36
2022-12-11T16:50:33.332Z,-0.34
2022-12-11T16:53:00.590Z,-0.29
2022-12-11T16:55:28.108Z,-0.37
2022-12-11T16:57:55.372Z,-0.46
2022-12-11T17:00:22.955Z,-0.44
2022-12-11T17:02:50.911Z,-0.32
2022-12-11T17:05:18.717Z,-0.28
2022-12-11T17:07:45.980Z,-0.35
2022-12-11T17:10:13.611Z,-0.44
2022-12-11T17:12:40.875Z,-0.41
2022-12-11T17:15:09.056Z,-0.41
2022-12-11T17:17:36.473Z,-0.37
2022-12-11T17:20:06.406Z,-0.36
2022-12-11T17:22:33.624Z,-0.41
2022-12-11T17:25:01.177Z,-0.28
2022-12-11T17:27:28.381Z,-0.23
2022-12-11T17:29:55.941Z,-0.19
2022-12-11T17:32:23.221Z,-0.14
2022-12-11T17:34:50.963Z,-0.33
2022-12-11T17:37:18.871Z,-0.34
2022-12-11T17:39:47.611Z,-0.40
2022-12-11T17:42:14.895Z,-0.31
2022-12-11T17:44:42.484Z,-0.42
2022-12-11T17:47:12.044Z,-0.53
2022-12-11T17:49:40.529Z,-0.59
2022-12-11T17:52:08.341Z,-0.48
2022-12-11T17:54:35.879Z,-0.52
2022-12-11T17:57:03.281Z,-0.51
2022-12-11T17:59:30.851Z,-0.62
2022-12-11T18:01:58.196Z,-0.73
2022-12-11T18:04:26.045Z,-0.73
2022-12-11T18:06:53.341Z,-0.70
2022-12-11T18:09:20.822Z,-0.81
2022-12-11T18:11:48.348Z,-0.75
2022-12-11T18:14:17.627Z,-0.80
2022-12-11T18:16:45.158Z,-0.73
2022-12-11T18:19:13.917Z,-0.81
2022-12-11T18:21:44.216Z,-0.73
2022-12-11T18:24:12.301Z,-0.64
2022-12-11T18:26:39.551Z,-0.66
2022-12-11T18:29:07.065Z,-0.54
2022-12-11T18:31:37.559Z,-0.47
2022-12-11T18:34:10.821Z,-0.57
2022-12-11T18:36:38.334Z,-0.42
2022-12-11T18:39:05.893Z,-0.51
2022-12-11T18:41:33.164Z,-0.43
2022-12-11T18:44:08.009Z,-0.44
2022-12-11T18:46:37.631Z,-0.45
2022-12-11T18:49:06.471Z,-0.49
2022-12-11T18:51:34.214Z,-0.51
2022-12-11T18:54:01.782Z,-0.51
2022-12-11T18:56:29.070Z,-0.57
2022-12-11T18:58:56.615Z,-0.60
2022-12-11T19:01:29.088Z,-0.69
2022-12-11T19:04:04.161Z,-0.57
2022-12-11T19:06:35.496Z,-0.73
2022-12-11T19:09:05.793Z,-0.77
2022-12-11T19:11:34.987Z,-0.88
2022-12-11T19:14:05.645Z,-0.80
2022-12-11T19:16:40.964Z,-0.88
2022-12-11T19:19:16.807Z,-0.86
2022-12-11T19:21:45.225Z,-0.76
2022-12-11T19:24:17.233Z,-0.76
2022-12-11T19:26:44.963Z,-0.84
2022-12-11T19:29:28.755Z,-0.73
2022-12-11T19:31:56.480Z,-0.66
2022-12-11T19:34:25.047Z,-0.60
2022-12-11T19:36:52.359Z,-0.72
2022-12-11T19:39:20.504Z,-0.61
2022-12-11T19:41:49.081Z,-0.60
2022-12-11T19:44:16.549Z,-0.71
2022-12-11T19:46:43.923Z,-0.66
2022-12-11T19:49:12.427Z,-0.65
2022-12-11T19:51:41.919Z,-0.66
2022-12-11T19:54:15.017Z,-0.75
2022-12-11T19:56:43.062Z,-0.70
2022-12-11T19:59:16.706Z,-0.79
2022-12-11T20:01:48.256Z,-0.86
2022-12-11T20:04:17.836Z,-0.86
2022-12-11T20:06:47.306Z,-0.73
2022-12-11T20:09:15.827Z,-0.74
2022-12-11T20:11:45.624Z,-0.78
2022-12-11T20:14:24.403Z,-0.80
2022-12-11T20:19:41.721Z,-0.83
2022-12-11T20:22:09.618Z,-0.76
2022-12-11T20:24:37.603Z,-0.85
2022-12-11T20:27:05.798Z,-0.87
2022-12-11T20:29:33.476Z,-0.82
2022-12-11T20:32:00.754Z,-0.96
2022-12-11T20:34:28.482Z,-1.00
2022-12-11T20:36:56.432Z,-0.92
2022-12-11T20:39:25.290Z,-1.09
2022-12-11T20:41:52.521Z,-1.06
2022-12-11T20:44:20.260Z,-1.00
2022-12-11T20:46:47.783Z,-0.91
2022-12-11T20:49:15.634Z,-0.90
2022-12-11T20:51:42.968Z,-1.01
2022-12-11T20:54:10.529Z,-1.05
2022-12-11T20:56:38.578Z,-1.11
2022-12-11T20:59:06.931Z,-1.01
2022-12-11T21:01:35.139Z,-1.13
2022-12-11T21:04:03.218Z,-1.10
2022-12-11T21:06:36.587Z,-1.07
2022-12-11T21:09:14.494Z,-1.04
2022-12-11T21:11:42.052Z,-0.92
2022-12-11T21:14:09.898Z,-1.09
2022-12-11T21:16:38.247Z,-1.10
2022-12-11T21:19:06.904Z,-0.92
2022-12-11T21:21:39.831Z,-1.00
2022-12-11T21:24:14.436Z,-0.96
2022-12-11T21:26:41.746Z,-1.05
2022-12-11T21:29:09.337Z,-0.99
2022-12-11T21:31:37.787Z,-1.07
2022-12-11T21:34:06.424Z,-0.97
2022-12-11T21:36:34.573Z,-1.04
2022-12-11T21:39:04.451Z,-0.97
2022-12-11T21:41:31.970Z,-0.98
2022-12-11T21:45:26.033Z,-1.07
2022-12-11T21:46:47.593Z,-1.03
2022-12-11T21:49:15.202Z,-1.12
2022-12-11T21:51:46.903Z,-0.97
2022-12-11T21:54:18.883Z,-1.09
2022-12-11T21:56:47.337Z,-0.92
2022-12-11T21:59:15.047Z,-1.00
2022-12-11T22:01:46.269Z,-1.01
2022-12-11T22:04:15.550Z,-1.10
2022-12-11T22:06:43.737Z,-1.07
2022-12-11T22:09:13.045Z,-1.07
2022-12-11T22:11:42.437Z,-1.04
2022-12-11T22:14:17.071Z,-1.12
2022-12-11T22:16:45.215Z,-1.05
2022-12-11T22:19:13.602Z,-0.92
2022-12-11T22:21:41.015Z,-0.94
2022-12-11T22:24:09.088Z,-0.83
2022-12-11T22:26:36.408Z,-0.93
2022-12-11T22:29:03.955Z,-0.98
2022-12-11T22:31:31.568Z,-0.95
2022-12-11T22:33:59.152Z,-0.98
2022-12-11T22:36:27.359Z,-0.97
2022-12-11T22:38:55.417Z,-0.93
2022-12-11T22:41:32.018Z,-0.85
2022-12-11T22:44:00.232Z,-0.89
2022-12-11T22:46:31.008Z,-0.79
2022-12-11T22:48:59.613Z,-0.77
2022-12-11T22:51:26.829Z,-0.90
2022-12-11T22:53:54.320Z,-0.96
2022-12-11T22:56:21.737Z,-0.87
2022-12-11T22:58:49.242Z,-0.86
2022-12-11T23:01:23.256Z,-0.78
2022-12-11T23:03:51.616Z,-0.84
2022-12-11T23:06:22.690Z,-0.88
2022-12-11T23:08:50.388Z,-0.88
2022-12-11T23:11:26.371Z,-0.82
2022-12-11T23:13:55.483Z,-0.72
2022-12-11T23:16:26.287Z,-0.83
2022-12-11T23:18:55.983Z,-0.81
2022-12-11T23:21:23.791Z,-0.94
2022-12-11T23:23:51.434Z,-0.97
2022-12-11T23:26:20.763Z,-0.92
2022-12-11T23:28:49.441Z,-0.90
2022-12-11T23:31:18.178Z,-0.83
2022-12-11T23:33:46.003Z,-0.88
2022-12-11T23:36:13.715Z,-0.86
2022-12-11T23:38:41.547Z,-0.92
2022-12-11T23:41:12.671Z,-0.84
2022-12-11T23:43:41.903Z,-0.82
2022-12-11T23:46:16.611Z,-0.83
2022-12-11T23:48:44.867Z,-0.87
2022-12-11T23:51:16.070Z,-0.92
2022-12-11T23:53:44.279Z,-0.89
2022-12-11T23:56:23.680Z,-0.82
2022-12-11T23:58:52.896Z,-0.77
